createdAt,value
2022-12-29T00:01:35.796Z,0
2022-12-29T00:11:13.145Z,0
2022-12-29T00:20:50.314Z,0
2022-12-29T00:30:27.728Z,0
2022-12-29T00:40:04.919Z,0
2022-12-29T00:49:42.154Z,0
2022-12-29T00:59:19.345Z,0
2022-12-29T01:08:57.078Z,0
2022-12-29T01:18:34.837Z,0
2022-12-29T01:28:12.162Z,0
2022-12-29T01:37:49.968Z,0
2022-12-29T01:47:27.930Z,0
2022-12-29T01:57:05.540Z,0
2022-12-29T02:06:43.232Z,0
2022-12-29T02:16:20.489Z,0
2022-12-29T02:25:57.927Z,0
2022-12-29T02:35:35.112Z,0
2022-12-29T02:45:13.464Z,0
2022-12-29T02:54:49.848Z,0
2022-12-29T03:04:27.299Z,0
2022-12-29T03:14:04.291Z,0
2022-12-29T03:23:41.707Z,0
2022-12-29T03:33:18.908Z,0
2022-12-29T03:42:56.239Z,0
2022-12-29T03:52:33.696Z,0
2022-12-29T04:02:11.376Z,0
2022-12-29T04:11:48.416Z,0
2022-12-29T04:21:25.500Z,0
2022-12-29T04:31:08.778Z,0
2022-12-29T04:40:51.197Z,0
2022-12-29T04:50:28.364Z,0
2022-12-29T05:00:05.633Z,0
2022-12-29T05:09:42.842Z,0
2022-12-29T05:19:20.172Z,0
2022-12-29T05:28:57.729Z,0
2022-12-29T05:38:35.513Z,0
2022-12-29T05:48:12.777Z,0
2022-12-29T05:57:49.932Z,0
2022-12-29T06:07:27.363Z,0
2022-12-29T06:17:04.687Z,0
2022-12-29T06:26:41.847Z,0
2022-12-29T06:35:52.968Z,0
2022-12-29T06:45:30.097Z,0
2022-12-29T06:55:07.003Z,0
2022-12-29T07:04:44.425Z,0
2022-12-29T07:14:21.687Z,0
2022-12-29T07:23:59.256Z,11.25
2022-12-29T07:33:36.791Z,16.88
2022-12-29T07:43:14.485Z,22.5
2022-12-29T07:52:52.400Z,33.75
2022-12-29T08:02:29.445Z,39.38
2022-12-29T08:12:06.788Z,33.75
2022-12-29T08:21:44.586Z,61.88
2022-12-29T08:31:22.166Z,90
2022-12-29T08:40:59.439Z,106.88
2022-12-29T08:50:37.079Z,129.38
2022-12-29T09:00:15.601Z,258.75
2022-12-29T09:09:54.164Z,202.5
2022-12-29T09:19:31.346Z,180
2022-12-29T09:29:09.145Z,112.5
2022-12-29T09:38:46.383Z,73.13
2022-12-29T09:48:23.663Z,84.38
2022-12-29T09:58:00.884Z,84.38
2022-12-29T10:07:37.957Z,45
2022-12-29T10:17:14.637Z,33.75
2022-12-29T10:26:52.140Z,95.63
2022-12-29T10:36:30.451Z,219.38
2022-12-29T10:46:08.593Z,180
2022-12-29T10:55:46.388Z,140.63
2022-12-29T11:05:22.988Z,95.63
2022-12-29T11:14:59.868Z,95.63
2022-12-29T11:24:36.925Z,67.5
2022-12-29T11:34:14.846Z,101.25
2022-12-29T11:43:53.492Z,95.63
2022-12-29T11:53:30.907Z,118.13
2022-12-29T12:03:07.609Z,95.63
2022-12-29T12:12:45.120Z,236.25
2022-12-29T12:22:23.150Z,123.75
2022-12-29T12:31:59.184Z,56.25
2022-12-29T12:41:35.203Z,118.13
2022-12-29T12:51:13.097Z,95.63
2022-12-29T13:00:49.638Z,73.13
2022-12-29T13:10:26.126Z,84.38
2022-12-29T13:20:04.238Z,1192.5
2022-12-29T13:29:46.071Z,1170
2022-12-29T13:49:09.940Z,163.13
2022-12-29T13:58:41.920Z,90
2022-12-29T14:08:17.654Z,61.88
2022-12-29T14:17:37.939Z,140.63
2022-12-29T14:27:17.245Z,174.38
2022-12-29T14:36:54.243Z,135
2022-12-29T14:46:30.717Z,106.88
2022-12-29T14:56:07.241Z,61.88
2022-12-29T15:05:44.597Z,39.38
2022-12-29T15:15:20.420Z,22.5
2022-12-29T15:24:57.325Z,5.63
2022-12-29T15:34:33.947Z,0
2022-12-29T15:44:10.762Z,0
2022-12-29T15:53:47.591Z,0
2022-12-29T16:03:23.941Z,0
2022-12-29T16:12:59.988Z,0
2022-12-29T16:22:36.944Z,0
2022-12-29T16:32:13.151Z,0
2022-12-29T16:41:49.575Z,0
2022-12-29T16:51:26.617Z,0
2022-12-29T17:01:03.469Z,0
2022-12-29T17:10:40.568Z,0
2022-12-29T17:20:18.191Z,0
2022-12-29T17:29:55.406Z,0
2022-12-29T17:39:32.668Z,0
2022-12-29T17:49:09.686Z,0
2022-12-29T17:58:47.050Z,0
2022-12-29T18:08:24.048Z,0
2022-12-29T18:18:01.611Z,0
2022-12-29T18:27:38.552Z,0
2022-12-29T18:37:15.094Z,0
2022-12-29T18:46:52.507Z,0
2022-12-29T18:56:29.863Z,0
2022-12-29T19:06:06.841Z,0
2022-12-29T19:15:44.320Z,0
2022-12-29T19:25:21.340Z,0
2022-12-29T19:34:58.441Z,0
2022-12-29T19:44:35.633Z,0
2022-12-29T19:54:12.753Z,0
2022-12-29T20:03:49.457Z,0
2022-12-29T20:13:26.355Z,0
2022-12-29T20:23:03.144Z,0
2022-12-29T20:32:40.496Z,0
2022-12-29T20:42:17.458Z,0
2022-12-29T20:52:09.232Z,0
2022-12-29T21:01:31.312Z,0
2022-12-29T21:11:08.101Z,0
2022-12-29T21:20:44.774Z,0
2022-12-29T21:30:21.927Z,0
2022-12-29T21:39:59.072Z,0
2022-12-29T21:49:36.221Z,0
2022-12-29T21:59:13.185Z,0
2022-12-29T22:08:50.435Z,0
2022-12-29T22:18:27.679Z,0
2022-12-29T22:28:04.577Z,0
2022-12-29T22:37:41.361Z,0
2022-12-29T22:47:18.081Z,0
2022-12-29T22:56:54.495Z,0
2022-12-29T23:06:31.603Z,0
2022-12-29T23:16:08.139Z,0
2022-12-29T23:25:44.772Z,0
2022-12-29T23:35:21.348Z,0
2022-12-29T23:44:58.351Z,0
2022-12-29T23:54:35.526Z,0
